sensor_id;sensor_type;location;lat;lon;timestamp;pressure;altitude;pressure_sealevel;temperature;humidity
54270;BME280;40181;51.560;13.000;2022-10-31T00:01:54;101063.78;;;14.28;75.86
54270;BME280;40181;51.560;13.000;2022-10-31T00:04:23;101050.59;;;14.39;75.43
54270;BME280;40181;51.560;13.000;2022-10-31T00:06:53;101057.63;;;14.32;75.33
54270;BME280;40181;51.560;13.000;2022-10-31T00:09:22;101050.63;;;14.41;74.88
54270;BME280;40181;51.560;13.000;2022-10-31T00:11:55;101043.56;;;14.43;74.71
54270;BME280;40181;51.560;13.000;2022-10-31T00:14:24;101056.75;;;14.35;74.62
54270;BME280;40181;51.560;13.000;2022-10-31T00:16:53;101057.75;;;14.56;74.20
54270;BME280;40181;51.560;13.000;2022-10-31T00:19:23;101052.34;;;14.35;74.68
54270;BME280;40181;51.560;13.000;2022-10-31T00:21:55;101061.13;;;14.27;74.95
54270;BME280;40181;51.560;13.000;2022-10-31T00:24:27;101055.94;;;14.45;74.02
54270;BME280;40181;51.560;13.000;2022-10-31T00:26:57;101061.19;;;14.41;74.42
54270;BME280;40181;51.560;13.000;2022-10-31T00:29:26;101064.75;;;14.47;74.24
54270;BME280;40181;51.560;13.000;2022-10-31T00:31:56;101073.47;;;14.31;74.59
54270;BME280;40181;51.560;13.000;2022-10-31T00:34:25;101070.03;;;14.41;74.34
54270;BME280;40181;51.560;13.000;2022-10-31T00:36:55;101069.94;;;14.27;74.77
54270;BME280;40181;51.560;13.000;2022-10-31T00:39:27;101062.78;;;14.14;75.25
54270;BME280;40181;51.560;13.000;2022-10-31T00:41:56;101071.72;;;14.28;74.58
54270;BME280;40181;51.560;13.000;2022-10-31T00:44:26;101079.50;;;14.11;75.52
54270;BME280;40181;51.560;13.000;2022-10-31T00:46:55;101080.41;;;14.15;75.25
54270;BME280;40181;51.560;13.000;2022-10-31T00:49:25;101073.50;;;14.37;74.66
54270;BME280;40181;51.560;13.000;2022-10-31T00:51:54;101087.41;;;14.08;75.49
54270;BME280;40181;51.560;13.000;2022-10-31T00:54:24;101083.94;;;14.17;75.33
54270;BME280;40181;51.560;13.000;2022-10-31T00:56:56;101076.88;;;14.16;75.38
54270;BME280;40181;51.560;13.000;2022-10-31T00:59:25;101088.31;;;14.11;75.51
54270;BME280;40181;51.560;13.000;2022-10-31T01:01:54;101089.13;;;14.01;75.83
54270;BME280;40181;51.560;13.000;2022-10-31T01:04:24;101083.78;;;13.93;75.96
54270;BME280;40181;51.560;13.000;2022-10-31T01:06:53;101084.63;;;13.91;76.32
54270;BME280;40181;51.560;13.000;2022-10-31T01:09:23;101087.13;;;13.74;77.12
54270;BME280;40181;51.560;13.000;2022-10-31T01:11:55;101099.47;;;13.73;77.46
54270;BME280;40181;51.560;13.000;2022-10-31T01:14:25;101098.56;;;13.69;76.92
54270;BME280;40181;51.560;13.000;2022-10-31T01:16:54;101088.72;;;13.56;77.40
54270;BME280;40181;51.560;13.000;2022-10-31T01:19:24;101085.19;;;13.54;77.67
54270;BME280;40181;51.560;13.000;2022-10-31T01:21:54;101098.63;;;13.79;77.21
54270;BME280;40181;51.560;13.000;2022-10-31T01:24:23;101092.41;;;13.71;77.32
54270;BME280;40181;51.560;13.000;2022-10-31T01:26:55;101096.75;;;13.65;77.52
54270;BME280;40181;51.560;13.000;2022-10-31T01:29:25;101089.72;;;13.69;77.07
54270;BME280;40181;51.560;13.000;2022-10-31T01:31:54;101088.88;;;13.72;77.12
54270;BME280;40181;51.560;13.000;2022-10-31T01:34:23;101101.88;;;13.50;77.75
54270;BME280;40181;51.560;13.000;2022-10-31T01:36:53;101094.81;;;13.46;78.38
54270;BME280;40181;51.560;13.000;2022-10-31T01:39:22;101094.69;;;13.38;78.68
54270;BME280;40181;51.560;13.000;2022-10-31T01:41:54;101090.50;;;13.55;78.10
54270;BME280;40181;51.560;13.000;2022-10-31T01:44:48;101092.22;;;13.52;78.16
54270;BME280;40181;51.560;13.000;2022-10-31T01:47:46;101090.16;;;13.26;79.16
54270;BME280;40181;51.560;13.000;2022-10-31T01:50:26;101101.59;;;13.26;79.40
54270;BME280;40181;51.560;13.000;2022-10-31T01:53:00;101104.13;;;13.16;80.04
54270;BME280;40181;51.560;13.000;2022-10-31T01:55:32;101091.69;;;13.07;80.54
54270;BME280;40181;51.560;13.000;2022-10-31T01:58:10;101105.03;;;13.18;80.14
54270;BME280;40181;51.560;13.000;2022-10-31T02:00:44;101104.06;;;13.12;80.31
54270;BME280;40181;51.560;13.000;2022-10-31T02:03:18;101099.81;;;13.22;80.55
54270;BME280;40181;51.560;13.000;2022-10-31T02:05:47;101107.69;;;13.19;80.36
54270;BME280;40181;51.560;13.000;2022-10-31T02:08:21;101095.34;;;13.18;80.45
54270;BME280;40181;51.560;13.000;2022-10-31T02:10:54;101104.38;;;13.39;79.44
54270;BME280;40181;51.560;13.000;2022-10-31T02:13:28;101105.91;;;13.20;79.88
54270;BME280;40181;51.560;13.000;2022-10-31T02:15:58;101112.06;;;13.19;80.03
54270;BME280;40181;51.560;13.000;2022-10-31T02:18:29;101105.09;;;13.25;79.54
54270;BME280;40181;51.560;13.000;2022-10-31T02:21:07;101112.19;;;13.31;79.55
54270;BME280;40181;51.560;13.000;2022-10-31T02:24:05;101107.59;;;13.11;80.29
54270;BME280;40181;51.560;13.000;2022-10-31T02:27:07;101107.50;;;13.05;80.88
54270;BME280;40181;51.560;13.000;2022-10-31T02:30:16;101112.91;;;13.16;80.47
54270;BME280;40181;51.560;13.000;2022-10-31T02:33:05;101112.13;;;13.23;79.93
54270;BME280;40181;51.560;13.000;2022-10-31T02:35:50;101113.69;;;13.09;80.29
54270;BME280;40181;51.560;13.000;2022-10-31T02:38:29;101116.31;;;13.06;80.60
54270;BME280;40181;51.560;13.000;2022-10-31T02:41:10;101121.56;;;13.04;80.69
54270;BME280;40181;51.560;13.000;2022-10-31T02:43:55;101116.22;;;12.99;80.50
54270;BME280;40181;51.560;13.000;2022-10-31T02:46:32;101124.09;;;12.93;81.08
54270;BME280;40181;51.560;13.000;2022-10-31T02:49:12;101120.66;;;13.02;80.67
54270;BME280;40181;51.560;13.000;2022-10-31T02:51:50;101118.69;;;12.85;81.05
54270;BME280;40181;51.560;13.000;2022-10-31T02:54:22;101121.63;;;13.09;80.17
54270;BME280;40181;51.560;13.000;2022-10-31T02:56:57;101134.63;;;12.95;80.52
54270;BME280;40181;51.560;13.000;2022-10-31T02:59:28;101138.13;;;12.94;80.64
54270;BME280;40181;51.560;13.000;2022-10-31T03:02:08;101132.91;;;12.98;80.75
54270;BME280;40181;51.560;13.000;2022-10-31T03:05:06;101138.94;;;12.88;81.02
54270;BME280;40181;51.560;13.000;2022-10-31T03:07:49;101143.41;;;12.94;80.80
54270;BME280;40181;51.560;13.000;2022-10-31T03:10:31;101138.97;;;12.90;80.79
54270;BME280;40181;51.560;13.000;2022-10-31T03:13:09;101148.63;;;12.88;80.95
54270;BME280;40181;51.560;13.000;2022-10-31T03:15:43;101143.47;;;12.98;80.60
54270;BME280;40181;51.560;13.000;2022-10-31T03:18:16;101147.00;;;12.99;80.40
54270;BME280;40181;51.560;13.000;2022-10-31T03:20:56;101147.75;;;12.89;81.08
54270;BME280;40181;51.560;13.000;2022-10-31T03:23:30;101145.06;;;12.85;81.29
54270;BME280;40181;51.560;13.000;2022-10-31T03:26:02;101149.41;;;12.80;81.33
54270;BME280;40181;51.560;13.000;2022-10-31T03:28:38;101150.28;;;12.81;81.49
54270;BME280;40181;51.560;13.000;2022-10-31T03:31:14;101161.47;;;12.64;81.93
54270;BME280;40181;51.560;13.000;2022-10-31T03:33:47;101158.06;;;12.70;81.90
54270;BME280;40181;51.560;13.000;2022-10-31T03:36:21;101165.16;;;12.76;81.84
54270;BME280;40181;51.560;13.000;2022-10-31T03:38:51;101166.78;;;12.69;82.30
54270;BME280;40181;51.560;13.000;2022-10-31T03:41:24;101166.09;;;12.81;81.45
54270;BME280;40181;51.560;13.000;2022-10-31T03:43:59;101171.03;;;12.57;82.50
54270;BME280;40181;51.560;13.000;2022-10-31T03:46:31;101171.03;;;12.57;82.56
54270;BME280;40181;51.560;13.000;2022-10-31T03:49:01;101163.97;;;12.53;82.89
54270;BME280;40181;51.560;13.000;2022-10-31T03:51:37;101174.63;;;12.64;82.47
54270;BME280;40181;51.560;13.000;2022-10-31T03:54:14;101165.50;;;12.40;83.46
54270;BME280;40181;51.560;13.000;2022-10-31T03:56:49;101171.75;;;12.47;82.75
54270;BME280;40181;51.560;13.000;2022-10-31T03:59:23;101178.94;;;12.57;82.99
54270;BME280;40181;51.560;13.000;2022-10-31T04:01:58;101173.69;;;12.59;82.59
54270;BME280;40181;51.560;13.000;2022-10-31T04:04:31;101171.06;;;12.59;82.73
54270;BME280;40181;51.560;13.000;2022-10-31T04:07:03;101170.78;;;12.42;83.06
54270;BME280;40181;51.560;13.000;2022-10-31T04:09:36;101177.00;;;12.45;82.89
54270;BME280;40181;51.560;13.000;2022-10-31T04:12:11;101168.94;;;12.35;83.35
54270;BME280;40181;51.560;13.000;2022-10-31T04:14:46;101167.63;;;12.65;82.46
54270;BME280;40181;51.560;13.000;2022-10-31T04:17:19;101182.69;;;12.72;81.95
54270;BME280;40181;51.560;13.000;2022-10-31T04:19:50;101168.72;;;12.79;81.70
54270;BME280;40181;51.560;13.000;2022-10-31T04:22:22;101187.59;;;12.50;83.10
54270;BME280;40181;51.560;13.000;2022-10-31T04:24:51;101169.09;;;12.44;83.29
54270;BME280;40181;51.560;13.000;2022-10-31T04:27:21;101176.41;;;12.64;82.65
54270;BME280;40181;51.560;13.000;2022-10-31T04:29:50;101166.00;;;12.73;81.94
54270;BME280;40181;51.560;13.000;2022-10-31T04:32:19;101176.28;;;12.56;82.81
54270;BME280;40181;51.560;13.000;2022-10-31T04:34:48;101184.44;;;12.73;82.20
54270;BME280;40181;51.560;13.000;2022-10-31T04:37:17;101172.94;;;12.66;82.20
54270;BME280;40181;51.560;13.000;2022-10-31T04:39:49;101189.88;;;12.85;81.45
54270;BME280;40181;51.560;13.000;2022-10-31T04:42:19;101184.41;;;12.71;81.33
54270;BME280;40181;51.560;13.000;2022-10-31T04:44:48;101187.84;;;12.66;82.24
54270;BME280;40181;51.560;13.000;2022-10-31T04:47:17;101184.28;;;12.62;82.32
54270;BME280;40181;51.560;13.000;2022-10-31T04:49:46;101186.13;;;12.66;82.17
54270;BME280;40181;51.560;13.000;2022-10-31T04:52:15;101191.22;;;12.55;82.78
54270;BME280;40181;51.560;13.000;2022-10-31T04:54:44;101189.69;;;12.71;82.16
54270;BME280;40181;51.560;13.000;2022-10-31T04:57:16;101193.66;;;12.43;83.55
54270;BME280;40181;51.560;13.000;2022-10-31T04:59:46;101195.75;;;12.66;82.45
54270;BME280;40181;51.560;13.000;2022-10-31T05:02:15;101189.22;;;12.42;83.29
54270;BME280;40181;51.560;13.000;2022-10-31T05:04:44;101199.84;;;12.45;83.20
54270;BME280;40181;51.560;13.000;2022-10-31T05:07:14;101200.94;;;12.58;82.52
54270;BME280;40181;51.560;13.000;2022-10-31T05:09:43;101197.03;;;12.34;83.50
54270;BME280;40181;51.560;13.000;2022-10-31T05:12:12;101205.53;;;12.16;84.90
54270;BME280;40181;51.560;13.000;2022-10-31T05:14:44;101194.47;;;12.39;83.24
54270;BME280;40181;51.560;13.000;2022-10-31T05:17:13;101200.03;;;12.03;84.56
54270;BME280;40181;51.560;13.000;2022-10-31T05:19:42;101194.34;;;11.83;85.53
54270;BME280;40181;51.560;13.000;2022-10-31T05:22:11;101195.38;;;11.90;86.29
54270;BME280;40181;51.560;13.000;2022-10-31T05:24:40;101200.84;;;11.55;87.67
54270;BME280;40181;51.560;13.000;2022-10-31T05:27:09;101198.06;;;11.47;88.40
54270;BME280;40181;51.560;13.000;2022-10-31T05:29:41;101212.88;;;11.43;88.50
54270;BME280;40181;51.560;13.000;2022-10-31T05:32:10;101203.06;;;11.34;89.32
54270;BME280;40181;51.560;13.000;2022-10-31T05:34:40;101202.56;;;11.53;88.60
54270;BME280;40181;51.560;13.000;2022-10-31T05:37:09;101211.28;;;11.52;88.09
54270;BME280;40181;51.560;13.000;2022-10-31T05:39:39;101210.38;;;11.48;88.37
54270;BME280;40181;51.560;13.000;2022-10-31T05:42:08;101212.28;;;11.57;87.81
54270;BME280;40181;51.560;13.000;2022-10-31T05:44:37;101212.56;;;11.71;87.67
54270;BME280;40181;51.560;13.000;2022-10-31T05:47:10;101210.84;;;11.73;87.44
54270;BME280;40181;51.560;13.000;2022-10-31T05:49:39;101210.13;;;11.82;86.90
54270;BME280;40181;51.560;13.000;2022-10-31T05:52:09;101205.94;;;11.93;86.09
54270;BME280;40181;51.560;13.000;2022-10-31T05:54:38;101215.38;;;11.80;86.49
54270;BME280;40181;51.560;13.000;2022-10-31T05:57:08;101213.00;;;11.94;86.66
54270;BME280;40181;51.560;13.000;2022-10-31T05:59:37;101218.06;;;11.39;88.44
54270;BME280;40181;51.560;13.000;2022-10-31T06:02:09;101212.94;;;11.45;88.72
54270;BME280;40181;51.560;13.000;2022-10-31T06:04:39;101217.47;;;11.52;88.80
54270;BME280;40181;51.560;13.000;2022-10-31T06:07:08;101221.25;;;11.22;90.09
54270;BME280;40181;51.560;13.000;2022-10-31T06:09:37;101222.63;;;11.47;89.32
54270;BME280;40181;51.560;13.000;2022-10-31T06:12:07;101217.97;;;11.34;89.91
54270;BME280;40181;51.560;13.000;2022-10-31T06:14:36;101225.22;;;11.46;89.15
54270;BME280;40181;51.560;13.000;2022-10-31T06:17:08;101220.00;;;11.47;89.14
54270;BME280;40181;51.560;13.000;2022-10-31T06:19:38;101221.09;;;11.57;89.21
54270;BME280;40181;51.560;13.000;2022-10-31T06:22:07;101228.13;;;11.60;88.43
54270;BME280;40181;51.560;13.000;2022-10-31T06:24:36;101219.47;;;11.64;88.45
54270;BME280;40181;51.560;13.000;2022-10-31T06:27:06;101221.78;;;11.95;87.03
54270;BME280;40181;51.560;13.000;2022-10-31T06:29:35;101218.38;;;12.02;86.84
54270;BME280;40181;51.560;13.000;2022-10-31T06:32:04;101222.78;;;12.01;86.71
54270;BME280;40181;51.560;13.000;2022-10-31T06:34:36;101228.13;;;12.04;86.74
54270;BME280;40181;51.560;13.000;2022-10-31T06:37:06;101233.63;;;11.71;87.56
54270;BME280;40181;51.560;13.000;2022-10-31T06:39:35;101229.34;;;11.76;87.93
54270;BME280;40181;51.560;13.000;2022-10-31T06:42:04;101236.28;;;11.74;88.66
54270;BME280;40181;51.560;13.000;2022-10-31T06:44:34;101232.06;;;11.82;87.72
54270;BME280;40181;51.560;13.000;2022-10-31T06:47:07;101231.97;;;11.77;88.26
54270;BME280;40181;51.560;13.000;2022-10-31T06:49:36;101234.88;;;11.90;87.67
54270;BME280;40181;51.560;13.000;2022-10-31T06:52:06;101239.19;;;11.88;88.13
54270;BME280;40181;51.560;13.000;2022-10-31T06:54:35;101248.97;;;11.94;87.39
54270;BME280;40181;51.560;13.000;2022-10-31T06:57:04;101245.31;;;11.87;88.46
54270;BME280;40181;51.560;13.000;2022-10-31T06:59:33;101244.44;;;11.86;87.73
54270;BME280;40181;51.560;13.000;2022-10-31T07:02:03;101237.59;;;11.96;87.50
54270;BME280;40181;51.560;13.000;2022-10-31T07:04:35;101254.34;;;12.00;87.48
54270;BME280;40181;51.560;13.000;2022-10-31T07:07:04;101252.09;;;11.72;88.18
54270;BME280;40181;51.560;13.000;2022-10-31T07:09:34;101259.13;;;11.73;88.39
54270;BME280;40181;51.560;13.000;2022-10-31T07:12:03;101266.03;;;11.68;88.80
54270;BME280;40181;51.560;13.000;2022-10-31T07:14:33;101269.22;;;11.98;88.16
54270;BME280;40181;51.560;13.000;2022-10-31T07:17:02;101267.63;;;12.03;88.01
54270;BME280;40181;51.560;13.000;2022-10-31T07:19:35;101267.31;;;11.89;88.51
54270;BME280;40181;51.560;13.000;2022-10-31T07:22:04;101269.16;;;11.93;88.91
54270;BME280;40181;51.560;13.000;2022-10-31T07:24:33;101266.56;;;11.96;88.86
54270;BME280;40181;51.560;13.000;2022-10-31T07:27:03;101273.50;;;11.93;89.58
54270;BME280;40181;51.560;13.000;2022-10-31T07:29:32;101279.94;;;12.04;88.82
54270;BME280;40181;51.560;13.000;2022-10-31T07:32:02;101274.66;;;12.04;89.17
54270;BME280;40181;51.560;13.000;2022-10-31T07:34:31;101287.19;;;12.17;88.42
54270;BME280;40181;51.560;13.000;2022-10-31T07:37:03;101278.81;;;12.40;87.58
54270;BME280;40181;51.560;13.000;2022-10-31T07:39:33;101280.47;;;12.34;87.87
54270;BME280;40181;51.560;13.000;2022-10-31T07:42:02;101283.25;;;12.43;87.60
54270;BME280;40181;51.560;13.000;2022-10-31T07:44:32;101280.09;;;12.13;88.85
54270;BME280;40181;51.560;13.000;2022-10-31T07:47:01;101287.03;;;12.59;87.07
54270;BME280;40181;51.560;13.000;2022-10-31T07:49:30;101290.00;;;12.81;86.24
54270;BME280;40181;51.560;13.000;2022-10-31T07:52:03;101283.88;;;12.82;86.13
54270;BME280;40181;51.560;13.000;2022-10-31T07:54:33;101292.78;;;12.90;86.19
54270;BME280;40181;51.560;13.000;2022-10-31T07:57:02;101286.91;;;13.07;85.51
54270;BME280;40181;51.560;13.000;2022-10-31T07:59:32;101287.84;;;13.13;85.04
54270;BME280;40181;51.560;13.000;2022-10-31T08:02:01;101293.31;;;13.24;84.89
54270;BME280;40181;51.560;13.000;2022-10-31T08:04:31;101286.19;;;13.19;85.55
54270;BME280;40181;51.560;13.000;2022-10-31T08:07:03;101286.41;;;13.36;85.14
54270;BME280;40181;51.560;13.000;2022-10-31T08:09:32;101293.66;;;13.48;84.53
54270;BME280;40181;51.560;13.000;2022-10-31T08:12:02;101292.69;;;13.44;84.89
54270;BME280;40181;51.560;13.000;2022-10-31T08:14:32;101290.00;;;13.41;85.40
54270;BME280;40181;51.560;13.000;2022-10-31T08:17:02;101292.03;;;13.58;84.70
54270;BME280;40181;51.560;13.000;2022-10-31T08:19:31;101279.81;;;13.66;83.92
54270;BME280;40181;51.560;13.000;2022-10-31T08:22:04;101286.91;;;13.72;84.06
54270;BME280;40181;51.560;13.000;2022-10-31T08:24:33;101281.59;;;13.70;83.58
54270;BME280;40181;51.560;13.000;2022-10-31T08:27:02;101281.47;;;13.59;84.10
54270;BME280;40181;51.560;13.000;2022-10-31T08:29:32;101283.47;;;13.77;83.84
54270;BME280;40181;51.560;13.000;2022-10-31T08:32:02;101273.81;;;13.81;83.96
54270;BME280;40181;51.560;13.000;2022-10-31T08:34:31;101272.16;;;13.89;83.65
54270;BME280;40181;51.560;13.000;2022-10-31T08:37:00;101276.63;;;13.96;83.94
54270;BME280;40181;51.560;13.000;2022-10-31T08:39:33;101274.97;;;14.05;83.82
54270;BME280;40181;51.560;13.000;2022-10-31T08:42:02;101278.53;;;14.13;83.23
54270;BME280;40181;51.560;13.000;2022-10-31T08:44:32;101286.53;;;14.16;83.38
54270;BME280;40181;51.560;13.000;2022-10-31T08:47:01;101283.03;;;14.20;84.55
54270;BME280;40181;51.560;13.000;2022-10-31T08:49:31;101280.44;;;14.23;84.25
54270;BME280;40181;51.560;13.000;2022-10-31T08:52:00;101291.09;;;14.34;84.30
54270;BME280;40181;51.560;13.000;2022-10-31T08:54:32;101276.09;;;14.33;83.99
54270;BME280;40181;51.560;13.000;2022-10-31T08:57:01;101274.34;;;14.35;84.30
54270;BME280;40181;51.560;13.000;2022-10-31T08:59:31;101284.16;;;14.47;83.83
54270;BME280;40181;51.560;13.000;2022-10-31T09:02:00;101281.44;;;14.36;84.46
54270;BME280;40181;51.560;13.000;2022-10-31T09:04:30;101270.91;;;14.43;83.73
54270;BME280;40181;51.560;13.000;2022-10-31T09:06:59;101279.00;;;14.60;83.78
54270;BME280;40181;51.560;13.000;2022-10-31T09:09:31;101277.16;;;14.51;84.23
54270;BME280;40181;51.560;13.000;2022-10-31T09:12:01;101273.66;;;14.57;84.00
54270;BME280;40181;51.560;13.000;2022-10-31T09:14:30;101286.09;;;14.67;84.14
54270;BME280;40181;51.560;13.000;2022-10-31T09:16:59;101279.16;;;14.74;83.74
54270;BME280;40181;51.560;13.000;2022-10-31T09:19:29;101272.09;;;14.76;84.09
54270;BME280;40181;51.560;13.000;2022-10-31T09:21:58;101267.78;;;14.86;83.91
54270;BME280;40181;51.560;13.000;2022-10-31T09:24:30;101269.44;;;14.74;84.80
54270;BME280;40181;51.560;13.000;2022-10-31T09:26:59;101270.50;;;14.98;84.18
54270;BME280;40181;51.560;13.000;2022-10-31T09:29:29;101270.53;;;15.06;83.45
54270;BME280;40181;51.560;13.000;2022-10-31T09:31:58;101266.22;;;15.20;83.50
54270;BME280;40181;51.560;13.000;2022-10-31T09:34:28;101275.84;;;15.11;83.82
54270;BME280;40181;51.560;13.000;2022-10-31T09:36:57;101277.69;;;15.26;83.85
54270;BME280;40181;51.560;13.000;2022-10-31T09:39:27;101268.84;;;15.16;83.93
54270;BME280;40181;51.560;13.000;2022-10-31T09:42:23;101281.19;;;15.20;84.66
54270;BME280;40181;51.560;13.000;2022-10-31T09:45:13;101283.09;;;15.43;84.22
54270;BME280;40181;51.560;13.000;2022-10-31T09:47:56;101274.25;;;15.42;84.79
54270;BME280;40181;51.560;13.000;2022-10-31T09:50:40;101268.97;;;15.47;84.71
54270;BME280;40181;51.560;13.000;2022-10-31T09:53:17;101275.22;;;15.60;84.95
54270;BME280;40181;51.560;13.000;2022-10-31T09:55:51;101272.56;;;15.57;84.64
54270;BME280;40181;51.560;13.000;2022-10-31T09:58:26;101268.13;;;15.49;84.29
54270;BME280;40181;51.560;13.000;2022-10-31T10:00:58;101267.25;;;15.55;83.76
54270;BME280;40181;51.560;13.000;2022-10-31T10:03:34;101265.56;;;15.67;83.81
54270;BME280;40181;51.560;13.000;2022-10-31T10:06:12;101275.25;;;15.68;84.10
54270;BME280;40181;51.560;13.000;2022-10-31T10:08:44;101270.88;;;15.76;84.24
54270;BME280;40181;51.560;13.000;2022-10-31T10:11:24;101271.84;;;15.95;83.42
54270;BME280;40181;51.560;13.000;2022-10-31T10:14:17;101273.66;;;16.13;83.12
54270;BME280;40181;51.560;13.000;2022-10-31T10:17:06;101263.94;;;16.20;82.61
54270;BME280;40181;51.560;13.000;2022-10-31T10:19:53;101271.00;;;16.13;83.51
54270;BME280;40181;51.560;13.000;2022-10-31T10:22:37;101266.59;;;16.34;83.82
54270;BME280;40181;51.560;13.000;2022-10-31T10:25:20;101269.25;;;16.39;83.14
54270;BME280;40181;51.560;13.000;2022-10-31T10:28:01;101264.84;;;16.42;83.07
54270;BME280;40181;51.560;13.000;2022-10-31T10:30:41;101267.50;;;16.52;83.49
54270;BME280;40181;51.560;13.000;2022-10-31T10:33:17;101268.38;;;16.68;83.94
54270;BME280;40181;51.560;13.000;2022-10-31T10:35:51;101265.72;;;16.55;82.38
54270;BME280;40181;51.560;13.000;2022-10-31T10:38:27;101256.88;;;16.67;81.99
54270;BME280;40181;51.560;13.000;2022-10-31T10:41:00;101255.06;;;16.91;82.57
54270;BME280;40181;51.560;13.000;2022-10-31T10:43:34;101257.72;;;16.99;81.36
54270;BME280;40181;51.560;13.000;2022-10-31T10:46:17;101244.47;;;17.00;81.33
54270;BME280;40181;51.560;13.000;2022-10-31T10:49:06;101244.44;;;17.16;80.77
54270;BME280;40181;51.560;13.000;2022-10-31T10:51:45;101250.66;;;17.01;80.27
54270;BME280;40181;51.560;13.000;2022-10-31T10:54:42;101236.47;;;17.16;81.19
54270;BME280;40181;51.560;13.000;2022-10-31T10:57:36;101246.22;;;17.08;81.44
54270;BME280;40181;51.560;13.000;2022-10-31T11:00:20;101238.22;;;17.17;80.12
54270;BME280;40181;51.560;13.000;2022-10-31T11:02:53;101251.50;;;17.25;79.47
54270;BME280;40181;51.560;13.000;2022-10-31T11:05:26;101236.44;;;17.24;79.96
54270;BME280;40181;51.560;13.000;2022-10-31T11:08:01;101231.97;;;17.32;79.07
54270;BME280;40181;51.560;13.000;2022-10-31T11:10:31;101232.78;;;17.50;79.25
54270;BME280;40181;51.560;13.000;2022-10-31T11:13:05;101232.78;;;17.51;78.53
54270;BME280;40181;51.560;13.000;2022-10-31T11:15:53;101224.81;;;17.53;78.85
54270;BME280;40181;51.560;13.000;2022-10-31T11:18:29;101227.47;;;17.56;78.89
54270;BME280;40181;51.560;13.000;2022-10-31T11:21:02;101211.38;;;17.78;79.25
54270;BME280;40181;51.560;13.000;2022-10-31T11:23:33;101220.16;;;17.94;79.82
54270;BME280;40181;51.560;13.000;2022-10-31T11:26:04;101207.66;;;18.08;78.02
54270;BME280;40181;51.560;13.000;2022-10-31T11:28:34;101212.16;;;17.97;78.48
54270;BME280;40181;51.560;13.000;2022-10-31T11:31:07;101214.84;;;17.92;78.83
54270;BME280;40181;51.560;13.000;2022-10-31T11:33:46;101212.94;;;18.16;78.11
54270;BME280;40181;51.560;13.000;2022-10-31T11:36:21;101204.00;;;18.27;77.14
54270;BME280;40181;51.560;13.000;2022-10-31T11:38:53;101203.91;;;18.37;76.74
54270;BME280;40181;51.560;13.000;2022-10-31T11:41:25;101195.94;;;18.36;76.06
54270;BME280;40181;51.560;13.000;2022-10-31T11:43:59;101200.25;;;18.49;75.58
54270;BME280;40181;51.560;13.000;2022-10-31T11:46:33;101200.16;;;18.62;75.14
54270;BME280;40181;51.560;13.000;2022-10-31T11:49:14;101202.03;;;18.47;75.65
54270;BME280;40181;51.560;13.000;2022-10-31T11:51:48;101205.38;;;18.70;75.89
54270;BME280;40181;51.560;13.000;2022-10-31T11:54:21;101205.31;;;18.74;75.68
54270;BME280;40181;51.560;13.000;2022-10-31T11:56:53;101197.19;;;18.91;75.95
54270;BME280;40181;51.560;13.000;2022-10-31T11:59:25;101190.09;;;18.89;74.98
54270;BME280;40181;51.560;13.000;2022-10-31T12:01:58;101194.41;;;18.99;76.09
54270;BME280;40181;51.560;13.000;2022-10-31T12:04:46;101187.34;;;18.95;75.17
54270;BME280;40181;51.560;13.000;2022-10-31T12:07:19;101187.41;;;18.90;76.35
54270;BME280;40181;51.560;13.000;2022-10-31T12:09:48;101182.03;;;18.95;75.81
54270;BME280;40181;51.560;13.000;2022-10-31T12:12:34;101182.78;;;19.10;74.89
54270;BME280;40181;51.560;13.000;2022-10-31T12:15:22;101175.94;;;18.87;75.18
54270;BME280;40181;51.560;13.000;2022-10-31T12:18:25;101166.88;;;19.00;75.04
54270;BME280;40181;51.560;13.000;2022-10-31T12:21:21;101174.28;;;18.75;75.41
54270;BME280;40181;51.560;13.000;2022-10-31T12:24:16;101168.91;;;18.78;75.00
54270;BME280;40181;51.560;13.000;2022-10-31T12:26:58;101160.78;;;18.90;74.62
54270;BME280;40181;51.560;13.000;2022-10-31T12:29:51;101167.91;;;18.90;75.28
54270;BME280;40181;51.560;13.000;2022-10-31T12:32:39;101163.44;;;18.93;74.84
54270;BME280;40181;51.560;13.000;2022-10-31T12:35:27;101167.00;;;18.91;75.78
54270;BME280;40181;51.560;13.000;2022-10-31T12:38:31;101164.94;;;19.16;74.97
54270;BME280;40181;51.560;13.000;2022-10-31T12:41:27;101152.69;;;19.04;75.66
54270;BME280;40181;51.560;13.000;2022-10-31T12:44:28;101157.97;;;19.06;74.86
54270;BME280;40181;51.560;13.000;2022-10-31T12:47:37;101162.13;;;19.29;74.90
54270;BME280;40181;51.560;13.000;2022-10-31T12:50:28;101150.03;;;19.01;74.54
54270;BME280;40181;51.560;13.000;2022-10-31T12:53:23;101149.09;;;19.07;75.12
54270;BME280;40181;51.560;13.000;2022-10-31T12:56:13;101140.22;;;19.06;75.26
54270;BME280;40181;51.560;13.000;2022-10-31T12:58:53;101142.72;;;19.20;75.23
54270;BME280;40181;51.560;13.000;2022-10-31T13:01:28;101136.72;;;19.00;75.43
54270;BME280;40181;51.560;13.000;2022-10-31T13:04:03;101135.00;;;18.97;75.88
54270;BME280;40181;51.560;13.000;2022-10-31T13:06:42;101135.91;;;18.96;76.05
54270;BME280;40181;51.560;13.000;2022-10-31T13:09:22;101125.19;;;18.99;76.31
54270;BME280;40181;51.560;13.000;2022-10-31T13:12:00;101133.25;;;18.94;75.73
54270;BME280;40181;51.560;13.000;2022-10-31T13:14:35;101119.13;;;18.88;75.92
54270;BME280;40181;51.560;13.000;2022-10-31T13:17:10;101122.97;;;18.62;75.93